Česky Dansk Deutsch English Español Suomi Français Magyar Italiano Nederlands norsk Polski Português svenska Türkçe

 

Het Weer

Djibouti (Djibouti)

16:00, 14 februari 2008 (GMT)

NWNNE
WE
SWSSE
Home            
Djibouti Djibouti \ Ambouli Assab Mokha Mokha Aden Berbera Hargeisa Jiggiga Dire Dawa Taiz Burao Hodeidah Combolcha Awash Makale Sana'A Marib Ataq Al-Hazm Kabre Dare Military Harar Meda Addis Ababa

Om een weerknop op uw website of weblog te plaatsen, copieer onderstaande code en plak die in uw pagina. In het eerste vakje staat HTML-code, in het tweede vakje UBB-code.


Add to Google

Details

Wind speed:4 bf, 15 kn, 7.7 m/s, 17.3 miles/h, 27.8 km/h
Wind direction:ENE, 060°
Visibility:Greater than 10000 m, 10 km, 32800 ft, 6.2 miles
Clouds:Ein wenig bewölkt at 1600 ft, 488 m
Durchbrochene Bewölkung at 2500 ft, 762 m
Temperature:26°C, 79°F
Gefühlte Temperatur:28°C, 82°F
Dew-point:23°C, 73°F
Atmospheric pressure:1018 hPa, 763.6 mmHg, 30.06 inHg, 1.005 atm
Relative humidity:83.6 %
METAR:HFFF 141600Z 06015KT 9999 FEW016 BKN025 26/23 Q1018 RESHRA NOSIG=/

Snelkoppelingen

Actuele weersinformatie van de hele wereld. Voeg locaties toe met het plus (+) symbool. Deze snelkoppelingen kunnen worden toegevoegd aan Google.

Lid van de Technetium groep

website free tracking
StatCounter NetStat W3C Validator

14-04-2021 09:23:36
astro.technetium.be money.technetium.be phote.technetium.be tafeltennistafel.technetium.be www.ligfiets.net